createdAt,value
2023-02-14T00:04:13.956Z,0.29
2023-02-14T00:09:17.680Z,0.33
2023-02-14T00:14:19.693Z,0.33
2023-02-14T00:19:22.079Z,0.36
2023-02-14T00:24:25.802Z,0.47
2023-02-14T00:29:30.122Z,0.35
2023-02-14T00:34:32.093Z,0.40
2023-02-14T00:39:34.035Z,0.36
2023-02-14T00:44:35.913Z,0.40
2023-02-14T00:49:37.871Z,0.46
2023-02-14T00:54:39.836Z,0.40
2023-02-14T00:59:41.770Z,0.48
2023-02-14T01:04:43.709Z,0.39
2023-02-14T01:09:45.662Z,0.35
2023-02-14T01:14:47.571Z,0.39
2023-02-14T01:19:52.780Z,0.37
2023-02-14T01:24:54.712Z,0.25
2023-02-14T01:29:56.788Z,0.14
2023-02-14T01:34:59.040Z,0.04
2023-02-14T01:40:01.121Z,0.01
2023-02-14T01:45:05.207Z,-0.17
2023-02-14T01:50:14.820Z,-0.40
2023-02-14T01:55:19.489Z,-0.49
2023-02-14T02:00:21.872Z,-0.56
2023-02-14T02:05:23.886Z,-0.38
2023-02-14T02:10:25.928Z,-0.26
2023-02-14T02:15:27.907Z,-0.22
2023-02-14T02:21:00.357Z,-0.29
2023-02-14T02:26:26.383Z,-0.30
2023-02-14T02:31:40.613Z,-0.27
2023-02-14T02:36:45.345Z,-0.22
2023-02-14T02:42:14.778Z,-0.15
2023-02-14T02:47:22.940Z,-0.10
2023-02-14T02:52:45.139Z,-0.09
2023-02-14T02:57:47.132Z,-0.07
2023-02-14T03:02:51.060Z,-0.09
2023-02-14T03:07:53.039Z,-0.07
2023-02-14T03:13:30.247Z,-0.07
2023-02-14T03:19:20.028Z,-0.09
2023-02-14T03:24:29.750Z,-0.07
2023-02-14T03:30:08.426Z,-0.05
2023-02-14T03:35:23.580Z,-0.13
2023-02-14T03:40:26.920Z,-0.05
2023-02-14T03:45:37.584Z,-0.02
2023-02-14T03:50:39.543Z,-0.01
2023-02-14T03:55:58.637Z,0.00
2023-02-14T04:01:15.151Z,0.05
2023-02-14T04:06:20.468Z,-0.03
2023-02-14T04:11:24.363Z,-0.16
2023-02-14T04:16:26.465Z,-0.30
2023-02-14T04:21:28.357Z,-0.47
2023-02-14T04:26:30.250Z,-0.65
2023-02-14T04:31:32.283Z,-0.67
2023-02-14T04:36:34.216Z,-0.53
2023-02-14T04:41:36.108Z,-0.61
2023-02-14T04:46:38.091Z,-0.57
2023-02-14T04:51:40.055Z,-0.55
2023-02-14T04:56:42.024Z,-0.55
2023-02-14T05:01:46.580Z,-0.43
2023-02-14T05:06:49.460Z,-0.43
2023-02-14T05:11:51.619Z,-0.45
2023-02-14T05:16:53.405Z,-0.50
2023-02-14T05:21:55.288Z,-0.38
2023-02-14T05:26:57.114Z,-0.35
2023-02-14T05:31:59.031Z,-0.34
2023-02-14T05:37:01.086Z,-0.25
2023-02-14T05:42:04.198Z,-0.14
2023-02-14T05:47:06.005Z,-0.09
2023-02-14T05:52:07.770Z,0.02
2023-02-14T05:57:09.571Z,0.11
2023-02-14T06:02:11.390Z,0.13
2023-02-14T06:07:13.213Z,0.15
2023-02-14T06:12:15.013Z,0.24
2023-02-14T06:17:16.909Z,0.27
2023-02-14T06:22:18.693Z,0.20
2023-02-14T06:27:20.487Z,0.03
2023-02-14T06:32:22.320Z,0.01
2023-02-14T06:37:24.105Z,-0.01
2023-02-14T06:42:25.952Z,0.13
2023-02-14T06:47:27.740Z,0.33
2023-02-14T06:52:29.505Z,0.40
2023-02-14T06:57:31.269Z,0.50
2023-02-14T07:02:33.125Z,0.38
2023-02-14T07:07:34.934Z,0.35
2023-02-14T07:12:36.727Z,0.63
2023-02-14T07:17:38.625Z,0.79
2023-02-14T07:22:40.428Z,0.57
2023-02-14T07:27:42.216Z,0.39
2023-02-14T07:32:44.017Z,0.09
2023-02-14T07:37:45.830Z,0.20
2023-02-14T07:42:54.272Z,0.52
2023-02-14T07:47:56.046Z,0.45
2023-02-14T07:52:57.856Z,0.46
2023-02-14T07:57:59.597Z,0.45
2023-02-14T08:03:01.365Z,0.49
2023-02-14T08:08:03.135Z,0.14
2023-02-14T08:13:04.930Z,0.07
2023-02-14T08:18:06.715Z,0.04
2023-02-14T08:23:08.519Z,0.25
2023-02-14T08:28:10.317Z,0.38
2023-02-14T08:33:12.232Z,0.32
2023-02-14T08:38:14.027Z,0.13
2023-02-14T08:43:15.833Z,0.35
2023-02-14T08:48:17.615Z,0.70
2023-02-14T08:53:19.474Z,0.74
2023-02-14T08:58:21.285Z,0.88
2023-02-14T09:03:23.064Z,0.75
2023-02-14T09:08:24.856Z,0.76
2023-02-14T09:13:26.663Z,0.84
2023-02-14T09:18:28.496Z,0.97
2023-02-14T09:23:30.289Z,1.23
2023-02-14T09:28:32.195Z,1.04
2023-02-14T09:33:33.949Z,1.26
2023-02-14T09:38:35.724Z,1.15
2023-02-14T09:43:41.140Z,1.17
2023-02-14T09:48:45.231Z,1.29
2023-02-14T09:53:55.338Z,1.13
2023-02-14T09:59:15.435Z,1.03
2023-02-14T10:04:28.555Z,1.02
2023-02-14T10:09:33.337Z,1.05
2023-02-14T10:14:35.109Z,1.08
2023-02-14T10:19:42.433Z,1.21
2023-02-14T10:24:59.230Z,1.45
2023-02-14T10:30:01.525Z,1.50
2023-02-14T10:35:30.318Z,1.29
2023-02-14T10:40:46.210Z,1.27
2023-02-14T10:45:56.062Z,1.12
2023-02-14T10:51:12.724Z,1.50
2023-02-14T10:56:23.682Z,1.44
2023-02-14T11:01:25.478Z,1.01
2023-02-14T11:06:27.517Z,1.18
2023-02-14T11:11:50.775Z,1.42
2023-02-14T11:16:53.053Z,1.25
2023-02-14T11:21:57.130Z,1.31
2023-02-14T11:27:03.119Z,1.10
2023-02-14T11:32:08.833Z,1.19
2023-02-14T11:37:22.793Z,1.11
2023-02-14T11:42:45.524Z,1.02
2023-02-14T11:47:47.401Z,1.07
2023-02-14T11:52:53.753Z,0.96
2023-02-14T11:57:55.614Z,0.97
2023-02-14T12:02:58.824Z,1.12
2023-02-14T12:08:05.060Z,0.91
2023-02-14T12:13:09.821Z,0.78
2023-02-14T12:18:36.472Z,0.84
2023-02-14T12:23:50.540Z,0.87
2023-02-14T12:29:12.487Z,1.05
2023-02-14T12:34:14.280Z,0.84
2023-02-14T12:39:18.909Z,0.65
2023-02-14T12:44:31.713Z,0.54
2023-02-14T12:49:56.393Z,0.54
2023-02-14T12:55:20.525Z,0.50
2023-02-14T13:00:32.302Z,0.50
2023-02-14T13:06:00.366Z,0.49
2023-02-14T13:11:43.689Z,0.19
2023-02-14T13:16:53.631Z,0.02
2023-02-14T13:21:55.668Z,0.04
2023-02-14T13:27:00.000Z,0.20
2023-02-14T13:32:02.727Z,0.35
2023-02-14T13:37:06.884Z,0.29
2023-02-14T13:42:08.740Z,0.19
2023-02-14T13:47:18.400Z,0.16
2023-02-14T13:52:46.288Z,-0.06
2023-02-14T13:58:03.555Z,-0.06
2023-02-14T14:03:05.752Z,0.03
2023-02-14T14:08:22.899Z,0.03
2023-02-14T14:13:42.955Z,-0.02
2023-02-14T14:18:44.921Z,0.11
2023-02-14T14:24:14.964Z,-0.09
2023-02-14T14:29:41.182Z,-0.05
2023-02-14T14:34:51.956Z,0.04
2023-02-14T14:39:55.919Z,-0.04
2023-02-14T14:44:59.861Z,-0.08
2023-02-14T14:50:06.320Z,0.02
2023-02-14T14:55:08.503Z,-0.02
2023-02-14T15:00:34.086Z,-0.06
2023-02-14T15:05:40.681Z,-0.08
2023-02-14T15:10:42.510Z,-0.38
2023-02-14T15:15:48.767Z,-0.57
2023-02-14T15:20:50.975Z,-0.76
2023-02-14T15:25:52.816Z,-0.79
2023-02-14T15:31:07.309Z,-0.83
2023-02-14T15:36:11.624Z,-0.81
2023-02-14T15:41:13.608Z,-0.81
2023-02-14T15:46:18.462Z,-0.87
2023-02-14T15:51:22.195Z,-0.77
2023-02-14T15:56:31.766Z,-0.74
2023-02-14T16:01:34.416Z,-0.75
2023-02-14T16:06:40.860Z,-0.72
2023-02-14T16:11:42.708Z,-0.67
2023-02-14T16:17:04.182Z,-0.67
2023-02-14T16:22:06.140Z,-0.86
2023-02-14T16:27:07.994Z,-0.75
2023-02-14T16:32:15.983Z,-0.90
2023-02-14T16:37:21.762Z,-0.72
2023-02-14T16:42:23.719Z,-0.81
2023-02-14T16:47:25.629Z,-0.77
2023-02-14T16:52:27.583Z,-0.75
2023-02-14T16:57:37.461Z,-0.78
2023-02-14T17:02:39.745Z,-0.76
2023-02-14T17:07:42.462Z,-0.77
2023-02-14T17:12:44.194Z,-0.88
2023-02-14T17:17:46.479Z,-0.89
2023-02-14T17:22:48.414Z,-0.98
2023-02-14T17:27:50.320Z,-0.94
2023-02-14T17:32:52.332Z,-0.86
2023-02-14T17:37:54.236Z,-0.78
2023-02-14T17:42:56.186Z,-0.72
2023-02-14T17:47:58.215Z,-0.73
2023-02-14T17:53:00.222Z,-1.13
2023-02-14T17:58:02.148Z,-1.32
2023-02-14T18:03:04.224Z,-1.43
2023-02-14T18:08:06.183Z,-1.46
2023-02-14T18:13:08.148Z,-1.49
2023-02-14T18:18:11.641Z,-1.45
2023-02-14T18:23:13.689Z,-1.59
2023-02-14T18:28:15.798Z,-1.59
2023-02-14T18:33:17.881Z,-1.65
2023-02-14T18:38:19.716Z,-1.74
2023-02-14T18:43:21.720Z,-1.78
2023-02-14T18:48:23.651Z,-1.64
2023-02-14T18:53:25.695Z,-1.67
2023-02-14T18:58:27.643Z,-1.72
2023-02-14T19:03:29.436Z,-1.79
2023-02-14T19:08:35.169Z,-1.87
2023-02-14T19:13:37.036Z,-1.87
2023-02-14T19:18:39.254Z,-1.93
2023-02-14T19:23:41.206Z,-1.91
2023-02-14T19:28:43.285Z,-1.80
2023-02-14T19:33:46.065Z,-2.01
2023-02-14T19:38:51.226Z,-2.15
2023-02-14T19:43:55.774Z,-2.11
2023-02-14T19:48:57.921Z,-2.25
2023-02-14T19:54:00.770Z,-2.29
2023-02-14T19:59:03.045Z,-2.26
2023-02-14T20:04:06.622Z,-2.33
2023-02-14T20:09:08.843Z,-2.42
2023-02-14T20:14:10.748Z,-2.40
2023-02-14T20:19:14.397Z,-2.57
2023-02-14T20:24:18.462Z,-2.51
2023-02-14T20:29:20.751Z,-2.59
2023-02-14T20:34:22.625Z,-2.60
2023-02-14T20:39:28.962Z,-2.53
2023-02-14T20:44:31.121Z,-2.50
2023-02-14T20:49:32.981Z,-2.58
2023-02-14T20:54:34.877Z,-2.66
2023-02-14T20:59:36.880Z,-2.52
2023-02-14T21:04:38.931Z,-2.74
2023-02-14T21:09:40.881Z,-2.61
2023-02-14T21:14:42.748Z,-2.67
2023-02-14T21:19:44.687Z,-2.61
2023-02-14T21:24:46.603Z,-2.46
2023-02-14T21:29:48.546Z,-2.70
2023-02-14T21:34:50.456Z,-2.77
2023-02-14T21:39:52.528Z,-2.61
2023-02-14T21:44:54.513Z,-2.61
2023-02-14T21:49:56.482Z,-2.61
2023-02-14T21:54:58.483Z,-2.61
2023-02-14T22:00:00.339Z,-2.72
2023-02-14T22:05:02.290Z,-2.72
2023-02-14T22:10:06.276Z,-2.64
2023-02-14T22:15:08.754Z,-2.58
2023-02-14T22:20:11.014Z,-2.71
2023-02-14T22:25:13.034Z,-2.72
2023-02-14T22:30:14.970Z,-2.66
2023-02-14T22:35:17.065Z,-2.63
2023-02-14T22:40:19.069Z,-2.71
2023-02-14T22:45:21.062Z,-2.62
2023-02-14T22:50:22.957Z,-2.86
2023-02-14T22:55:25.322Z,-2.69
2023-02-14T23:00:27.349Z,-2.69
2023-02-14T23:05:29.285Z,-2.79
2023-02-14T23:10:31.285Z,-2.91
2023-02-14T23:15:33.165Z,-2.90
2023-02-14T23:20:35.117Z,-2.87
2023-02-14T23:25:37.126Z,-2.82
2023-02-14T23:30:39.059Z,-2.89
2023-02-14T23:35:41.040Z,-2.88
2023-02-14T23:40:42.994Z,-2.93
2023-02-14T23:45:45.070Z,-2.76
2023-02-14T23:50:46.965Z,-2.87
2023-02-14T23:55:48.868Z,-2.94
